Csomor, Hungary

12:07 PM CET on January 30, 2015 (GMT +0100)
Kistarcsa | Change Station
CLOSE
Current Station
Personal Weather Station
Location: Kistarcsa, PEST COUNTY
Elevation: 654 ft
Nearby Weather Stations

Elev 654 ft 47.55 °N, 19.26 °E | Updated 4 seconds ago

Light Rain
Light Rain
36.7 °F
Feels Like 31 °F
N
8.1
Wind Variable Wind from ESE
Gusts 8.1 mph

Today
High -- | Low -- °F
--% Chance of Precip.
Yesterday
High -- | Low -- °F
Precip. -- in
7:12 AM 4:40 PM
Waxing Gibbous, 82% visible
Pressure 28.88 in
Visibility 3.7 miles
Clouds Few 700 ft
Scattered Clouds 2300 ft
Mostly Cloudy 4000 ft
Windchill 31 °F
Dew Point 33 °F
Humidity 87%
Rainfall 0.05 in
Snow Depth Not available.
UV 0.0 out of 12
Pollen Not available.
Air Quality Not available.
Flu Activity Not available.
METAR LHBP 301100Z 10010KT 6000 -RA FEW007 SCT023 BKN040 04/04 Q0978 R88/29//95 TEMPO 4000 RA SHRA BKN015

More Conditions Fewer Conditions

Pressure 28.88 in
Visibility 3.7 miles
Clouds Few 700 ft
Scattered Clouds 2300 ft
Mostly Cloudy 4000 ft
Windchill 31 °F
Dew Point 33 °F
Humidity 87%
Rainfall 0.05 in
Snow Depth Not available.
UV 0.0 out of 12
Pollen Not available.
Air Quality Not available.
Flu Activity Not available.
METAR LHBP 301100Z 10010KT 6000 -RA FEW007 SCT023 BKN040 04/04 Q0978 R88/29//95 TEMPO 4000 RA SHRA BKN015

More Conditions Fewer Conditions

10-Day Weather Forecast

Almanac

Astronomy

Jan. 30, 2015 Rise Set
Actual Time
Civil Twilight
Nautical Twilight
Astronomical Twilight
Moon
Length of Visible Light
Length of Day
Tomorrow will be .
, % of the Moon is Illuminated

Today's Extremes

Country Highs Country Lows

Community

WunderPhotos

Upload Photos

1,791,736 photos uploaded!

WunderBlogs® & News

Nearby

Air Quality

  Air Quality AQ Index Pollutant
Not available.

Snow Depth

Station Depth Elevation

Earthquake Activity

City Distance Mag. Time & Date
Minimum magnitude displayed is 2.5.

Coastal Water Temperatures

Place Temperature

Nearby Weather Stations